sensor_id;sensor_type;location;lat;lon;timestamp;P1;durP1;ratioP1;P2;durP2;ratioP2
78987;SDS011;74752;44.786;37.680;2024-01-11T00:00:17;17.15;;;9.15;;
78987;SDS011;74752;44.786;37.680;2024-01-11T00:01:34;17.77;;;8.88;;
78987;SDS011;74752;44.786;37.680;2024-01-11T00:02:36;17.05;;;8.10;;
78987;SDS011;74752;44.786;37.680;2024-01-11T00:03:38;17.13;;;8.48;;
78987;SDS011;74752;44.786;37.680;2024-01-11T00:04:39;21.35;;;10.13;;
78987;SDS011;74752;44.786;37.680;2024-01-11T00:05:54;16.67;;;8.50;;
78987;SDS011;74752;44.786;37.680;2024-01-11T00:06:56;18.25;;;8.68;;
78987;SDS011;74752;44.786;37.680;2024-01-11T00:07:57;18.80;;;9.40;;
78987;SDS011;74752;44.786;37.680;2024-01-11T00:08:59;15.07;;;8.45;;
78987;SDS011;74752;44.786;37.680;2024-01-11T00:10:01;20.23;;;9.30;;
78987;SDS011;74752;44.786;37.680;2024-01-11T00:11:05;19.40;;;9.45;;
78987;SDS011;74752;44.786;37.680;2024-01-11T00:12:07;19.13;;;9.65;;
78987;SDS011;74752;44.786;37.680;2024-01-11T00:13:12;18.33;;;9.23;;
78987;SDS011;74752;44.786;37.680;2024-01-11T00:14:17;15.30;;;7.95;;
78987;SDS011;74752;44.786;37.680;2024-01-11T00:15:18;14.02;;;7.65;;
78987;SDS011;74752;44.786;37.680;2024-01-11T00:16:20;15.73;;;7.93;;
78987;SDS011;74752;44.786;37.680;2024-01-11T00:17:23;15.90;;;8.27;;
78987;SDS011;74752;44.786;37.680;2024-01-11T00:18:25;14.60;;;8.35;;
78987;SDS011;74752;44.786;37.680;2024-01-11T00:19:28;14.27;;;7.70;;
78987;SDS011;74752;44.786;37.680;2024-01-11T00:20:29;15.77;;;8.63;;
78987;SDS011;74752;44.786;37.680;2024-01-11T00:21:34;15.50;;;7.85;;
78987;SDS011;74752;44.786;37.680;2024-01-11T00:22:36;15.18;;;7.85;;
78987;SDS011;74752;44.786;37.680;2024-01-11T00:23:38;13.77;;;7.40;;
78987;SDS011;74752;44.786;37.680;2024-01-11T00:24:39;15.48;;;7.95;;
78987;SDS011;74752;44.786;37.680;2024-01-11T00:25:54;12.20;;;6.93;;
78987;SDS011;74752;44.786;37.680;2024-01-11T00:26:57;13.40;;;6.85;;
78987;SDS011;74752;44.786;37.680;2024-01-11T00:27:58;13.52;;;7.32;;
78987;SDS011;74752;44.786;37.680;2024-01-11T00:29:00;14.45;;;7.38;;
78987;SDS011;74752;44.786;37.680;2024-01-11T00:30:09;14.82;;;7.28;;
78987;SDS011;74752;44.786;37.680;2024-01-11T00:31:16;14.93;;;7.68;;
78987;SDS011;74752;44.786;37.680;2024-01-11T00:32:20;15.60;;;7.65;;
78987;SDS011;74752;44.786;37.680;2024-01-11T00:33:24;14.80;;;7.72;;
78987;SDS011;74752;44.786;37.680;2024-01-11T00:34:27;11.90;;;6.80;;
78987;SDS011;74752;44.786;37.680;2024-01-11T00:35:31;15.05;;;7.75;;
78987;SDS011;74752;44.786;37.680;2024-01-11T00:36:36;13.27;;;8.05;;
78987;SDS011;74752;44.786;37.680;2024-01-11T00:37:39;14.85;;;7.60;;
78987;SDS011;74752;44.786;37.680;2024-01-11T00:38:43;15.57;;;7.88;;
78987;SDS011;74752;44.786;37.680;2024-01-11T00:39:46;13.65;;;7.32;;
78987;SDS011;74752;44.786;37.680;2024-01-11T00:40:48;15.50;;;8.18;;
78987;SDS011;74752;44.786;37.680;2024-01-11T00:41:50;16.13;;;8.48;;
78987;SDS011;74752;44.786;37.680;2024-01-11T00:42:53;16.02;;;8.15;;
78987;SDS011;74752;44.786;37.680;2024-01-11T00:44:00;13.63;;;7.30;;
78987;SDS011;74752;44.786;37.680;2024-01-11T00:45:14;16.10;;;7.88;;
78987;SDS011;74752;44.786;37.680;2024-01-11T00:46:18;15.57;;;7.55;;
78987;SDS011;74752;44.786;37.680;2024-01-11T00:47:20;13.00;;;7.53;;
78987;SDS011;74752;44.786;37.680;2024-01-11T00:48:22;14.68;;;7.60;;
78987;SDS011;74752;44.786;37.680;2024-01-11T00:49:27;15.18;;;8.02;;
78987;SDS011;74752;44.786;37.680;2024-01-11T00:50:28;17.27;;;8.93;;
78987;SDS011;74752;44.786;37.680;2024-01-11T00:51:29;14.90;;;7.50;;
78987;SDS011;74752;44.786;37.680;2024-01-11T00:52:35;16.05;;;8.07;;
78987;SDS011;74752;44.786;37.680;2024-01-11T00:53:39;15.07;;;7.70;;
78987;SDS011;74752;44.786;37.680;2024-01-11T00:54:44;16.90;;;8.45;;
78987;SDS011;74752;44.786;37.680;2024-01-11T00:55:47;15.70;;;9.02;;
78987;SDS011;74752;44.786;37.680;2024-01-11T00:56:49;17.42;;;9.07;;
78987;SDS011;74752;44.786;37.680;2024-01-11T00:58:00;18.67;;;9.85;;
78987;SDS011;74752;44.786;37.680;2024-01-11T00:59:03;20.98;;;9.95;;
78987;SDS011;74752;44.786;37.680;2024-01-11T01:00:05;18.95;;;9.40;;
78987;SDS011;74752;44.786;37.680;2024-01-11T01:01:13;19.73;;;9.85;;
78987;SDS011;74752;44.786;37.680;2024-01-11T01:02:15;20.83;;;10.15;;
78987;SDS011;74752;44.786;37.680;2024-01-11T01:03:18;21.90;;;10.73;;
78987;SDS011;74752;44.786;37.680;2024-01-11T01:04:20;19.90;;;10.10;;
78987;SDS011;74752;44.786;37.680;2024-01-11T01:05:23;20.38;;;10.43;;
78987;SDS011;74752;44.786;37.680;2024-01-11T01:06:25;20.08;;;10.25;;
78987;SDS011;74752;44.786;37.680;2024-01-11T01:07:27;23.00;;;11.18;;
78987;SDS011;74752;44.786;37.680;2024-01-11T01:08:28;21.15;;;10.68;;
78987;SDS011;74752;44.786;37.680;2024-01-11T01:09:37;24.63;;;11.52;;
78987;SDS011;74752;44.786;37.680;2024-01-11T01:10:45;22.08;;;11.18;;
78987;SDS011;74752;44.786;37.680;2024-01-11T01:11:47;21.50;;;11.10;;
78987;SDS011;74752;44.786;37.680;2024-01-11T01:12:49;20.88;;;10.90;;
78987;SDS011;74752;44.786;37.680;2024-01-11T01:13:50;21.30;;;10.25;;
78987;SDS011;74752;44.786;37.680;2024-01-11T01:14:53;19.50;;;10.23;;
78987;SDS011;74752;44.786;37.680;2024-01-11T01:15:55;23.15;;;10.98;;
78987;SDS011;74752;44.786;37.680;2024-01-11T01:17:07;21.40;;;11.20;;
78987;SDS011;74752;44.786;37.680;2024-01-11T01:19:11;19.60;;;9.68;;
78987;SDS011;74752;44.786;37.680;2024-01-11T01:20:25;25.20;;;11.18;;
78987;SDS011;74752;44.786;37.680;2024-01-11T01:21:27;26.70;;;12.38;;
78987;SDS011;74752;44.786;37.680;2024-01-11T01:22:28;24.83;;;12.55;;
78987;SDS011;74752;44.786;37.680;2024-01-11T01:23:30;26.92;;;12.57;;
78987;SDS011;74752;44.786;37.680;2024-01-11T01:24:44;25.08;;;11.25;;
78987;SDS011;74752;44.786;37.680;2024-01-11T01:25:47;24.05;;;12.13;;
78987;SDS011;74752;44.786;37.680;2024-01-11T01:26:48;22.30;;;10.95;;
78987;SDS011;74752;44.786;37.680;2024-01-11T01:27:49;25.20;;;12.52;;
78987;SDS011;74752;44.786;37.680;2024-01-11T01:28:52;25.58;;;12.63;;
78987;SDS011;74752;44.786;37.680;2024-01-11T01:29:59;31.90;;;12.13;;
78987;SDS011;74752;44.786;37.680;2024-01-11T01:31:02;25.95;;;11.93;;
78987;SDS011;74752;44.786;37.680;2024-01-11T01:32:05;26.85;;;12.95;;
78987;SDS011;74752;44.786;37.680;2024-01-11T01:33:08;29.08;;;11.98;;
78987;SDS011;74752;44.786;37.680;2024-01-11T01:34:09;23.00;;;11.15;;
78987;SDS011;74752;44.786;37.680;2024-01-11T01:35:13;21.92;;;11.60;;
78987;SDS011;74752;44.786;37.680;2024-01-11T01:36:15;23.90;;;11.95;;
78987;SDS011;74752;44.786;37.680;2024-01-11T01:37:24;27.98;;;12.55;;
78987;SDS011;74752;44.786;37.680;2024-01-11T01:38:27;27.60;;;12.70;;
78987;SDS011;74752;44.786;37.680;2024-01-11T01:39:31;24.52;;;11.15;;
78987;SDS011;74752;44.786;37.680;2024-01-11T01:40:33;30.45;;;12.70;;
78987;SDS011;74752;44.786;37.680;2024-01-11T01:41:38;25.83;;;12.68;;
78987;SDS011;74752;44.786;37.680;2024-01-11T01:42:44;29.65;;;13.00;;
78987;SDS011;74752;44.786;37.680;2024-01-11T01:43:46;26.15;;;12.38;;
78987;SDS011;74752;44.786;37.680;2024-01-11T01:44:54;29.13;;;12.05;;
78987;SDS011;74752;44.786;37.680;2024-01-11T01:45:57;27.35;;;12.13;;
78987;SDS011;74752;44.786;37.680;2024-01-11T01:47:03;25.23;;;11.25;;
78987;SDS011;74752;44.786;37.680;2024-01-11T01:48:06;24.85;;;12.43;;
78987;SDS011;74752;44.786;37.680;2024-01-11T01:49:08;22.75;;;11.80;;
78987;SDS011;74752;44.786;37.680;2024-01-11T01:50:13;24.65;;;11.50;;
78987;SDS011;74752;44.786;37.680;2024-01-11T01:51:15;28.95;;;13.52;;
78987;SDS011;74752;44.786;37.680;2024-01-11T01:52:17;24.02;;;13.55;;
78987;SDS011;74752;44.786;37.680;2024-01-11T01:53:23;23.77;;;11.77;;
78987;SDS011;74752;44.786;37.680;2024-01-11T01:54:29;27.08;;;12.30;;
78987;SDS011;74752;44.786;37.680;2024-01-11T01:55:33;27.38;;;12.50;;
78987;SDS011;74752;44.786;37.680;2024-01-11T01:56:35;24.13;;;11.88;;
78987;SDS011;74752;44.786;37.680;2024-01-11T01:57:37;26.90;;;11.68;;
78987;SDS011;74752;44.786;37.680;2024-01-11T01:58:44;34.00;;;12.40;;
78987;SDS011;74752;44.786;37.680;2024-01-11T01:59:47;33.25;;;13.07;;
78987;SDS011;74752;44.786;37.680;2024-01-11T02:00:53;31.90;;;13.82;;
78987;SDS011;74752;44.786;37.680;2024-01-11T02:01:55;37.55;;;13.38;;
78987;SDS011;74752;44.786;37.680;2024-01-11T02:02:57;36.83;;;13.52;;
78987;SDS011;74752;44.786;37.680;2024-01-11T02:04:03;33.45;;;13.32;;
78987;SDS011;74752;44.786;37.680;2024-01-11T02:05:09;36.55;;;12.73;;
78987;SDS011;74752;44.786;37.680;2024-01-11T02:06:13;24.83;;;12.15;;
78987;SDS011;74752;44.786;37.680;2024-01-11T02:07:16;28.63;;;13.00;;
78987;SDS011;74752;44.786;37.680;2024-01-11T02:08:19;40.47;;;13.77;;
78987;SDS011;74752;44.786;37.680;2024-01-11T02:09:23;41.63;;;13.35;;
78987;SDS011;74752;44.786;37.680;2024-01-11T02:10:25;35.75;;;13.50;;
78987;SDS011;74752;44.786;37.680;2024-01-11T02:11:30;31.83;;;13.70;;
78987;SDS011;74752;44.786;37.680;2024-01-11T02:12:38;29.77;;;12.77;;
78987;SDS011;74752;44.786;37.680;2024-01-11T02:13:43;31.30;;;12.30;;
78987;SDS011;74752;44.786;37.680;2024-01-11T02:14:47;28.27;;;13.68;;
78987;SDS011;74752;44.786;37.680;2024-01-11T02:15:49;38.60;;;14.40;;
78987;SDS011;74752;44.786;37.680;2024-01-11T02:16:50;38.28;;;13.65;;
78987;SDS011;74752;44.786;37.680;2024-01-11T02:17:52;38.30;;;13.93;;
78987;SDS011;74752;44.786;37.680;2024-01-11T02:18:55;32.05;;;14.27;;
78987;SDS011;74752;44.786;37.680;2024-01-11T02:20:08;30.27;;;12.55;;
78987;SDS011;74752;44.786;37.680;2024-01-11T02:21:11;42.97;;;13.48;;
78987;SDS011;74752;44.786;37.680;2024-01-11T02:22:24;29.05;;;11.75;;
78987;SDS011;74752;44.786;37.680;2024-01-11T02:23:36;35.30;;;13.63;;
78987;SDS011;74752;44.786;37.680;2024-01-11T02:24:47;32.33;;;13.73;;
78987;SDS011;74752;44.786;37.680;2024-01-11T02:25:59;30.73;;;13.25;;
78987;SDS011;74752;44.786;37.680;2024-01-11T02:27:01;43.97;;;14.07;;
78987;SDS011;74752;44.786;37.680;2024-01-11T02:28:20;33.80;;;14.45;;
78987;SDS011;74752;44.786;37.680;2024-01-11T02:29:34;48.30;;;15.43;;
78987;SDS011;74752;44.786;37.680;2024-01-11T02:30:37;37.08;;;13.63;;
78987;SDS011;74752;44.786;37.680;2024-01-11T02:31:53;31.80;;;13.15;;
78987;SDS011;74752;44.786;37.680;2024-01-11T02:33:00;33.67;;;13.30;;
78987;SDS011;74752;44.786;37.680;2024-01-11T02:34:04;35.03;;;14.23;;
78987;SDS011;74752;44.786;37.680;2024-01-11T02:35:08;34.65;;;14.85;;
78987;SDS011;74752;44.786;37.680;2024-01-11T02:36:18;31.00;;;13.63;;
78987;SDS011;74752;44.786;37.680;2024-01-11T02:37:23;36.22;;;15.43;;
78987;SDS011;74752;44.786;37.680;2024-01-11T02:38:26;39.50;;;14.05;;
78987;SDS011;74752;44.786;37.680;2024-01-11T02:39:32;37.72;;;12.98;;
78987;SDS011;74752;44.786;37.680;2024-01-11T02:40:37;42.83;;;15.23;;
78987;SDS011;74752;44.786;37.680;2024-01-11T02:41:40;39.95;;;14.73;;
78987;SDS011;74752;44.786;37.680;2024-01-11T02:42:58;43.67;;;15.02;;
78987;SDS011;74752;44.786;37.680;2024-01-11T02:44:14;31.10;;;12.75;;
78987;SDS011;74752;44.786;37.680;2024-01-11T02:45:17;35.10;;;15.35;;
78987;SDS011;74752;44.786;37.680;2024-01-11T02:46:20;29.08;;;13.73;;
78987;SDS011;74752;44.786;37.680;2024-01-11T02:47:23;25.73;;;13.15;;
78987;SDS011;74752;44.786;37.680;2024-01-11T02:48:29;27.80;;;13.63;;
78987;SDS011;74752;44.786;37.680;2024-01-11T02:49:35;29.08;;;13.15;;
78987;SDS011;74752;44.786;37.680;2024-01-11T02:50:37;31.65;;;14.07;;
78987;SDS011;74752;44.786;37.680;2024-01-11T02:51:39;29.77;;;13.20;;
78987;SDS011;74752;44.786;37.680;2024-01-11T02:52:42;33.30;;;12.98;;
78987;SDS011;74752;44.786;37.680;2024-01-11T02:53:45;31.70;;;13.00;;
78987;SDS011;74752;44.786;37.680;2024-01-11T02:54:48;27.80;;;14.02;;
78987;SDS011;74752;44.786;37.680;2024-01-11T02:55:50;52.53;;;14.50;;
78987;SDS011;74752;44.786;37.680;2024-01-11T02:56:53;31.98;;;13.75;;
78987;SDS011;74752;44.786;37.680;2024-01-11T02:58:05;39.08;;;15.77;;
78987;SDS011;74752;44.786;37.680;2024-01-11T02:59:10;35.90;;;15.35;;
78987;SDS011;74752;44.786;37.680;2024-01-11T03:00:13;42.90;;;15.77;;
78987;SDS011;74752;44.786;37.680;2024-01-11T03:01:18;42.10;;;16.00;;
78987;SDS011;74752;44.786;37.680;2024-01-11T03:02:21;37.90;;;16.70;;
78987;SDS011;74752;44.786;37.680;2024-01-11T03:03:24;40.08;;;16.90;;
78987;SDS011;74752;44.786;37.680;2024-01-11T03:04:26;38.30;;;15.35;;
78987;SDS011;74752;44.786;37.680;2024-01-11T03:05:28;37.85;;;15.10;;
78987;SDS011;74752;44.786;37.680;2024-01-11T03:06:32;158.25;;;49.30;;
78987;SDS011;74752;44.786;37.680;2024-01-11T03:07:35;111.07;;;40.22;;
78987;SDS011;74752;44.786;37.680;2024-01-11T03:08:40;78.20;;;29.10;;
78987;SDS011;74752;44.786;37.680;2024-01-11T03:09:53;66.28;;;25.13;;
78987;SDS011;74752;44.786;37.680;2024-01-11T03:10:56;41.92;;;17.33;;
78987;SDS011;74752;44.786;37.680;2024-01-11T03:11:58;45.97;;;16.63;;
78987;SDS011;74752;44.786;37.680;2024-01-11T03:13:09;34.13;;;14.60;;
78987;SDS011;74752;44.786;37.680;2024-01-11T03:14:18;32.13;;;14.27;;
78987;SDS011;74752;44.786;37.680;2024-01-11T03:15:29;30.85;;;14.45;;
78987;SDS011;74752;44.786;37.680;2024-01-11T03:16:32;32.50;;;15.27;;
78987;SDS011;74752;44.786;37.680;2024-01-11T03:17:35;38.28;;;15.00;;
78987;SDS011;74752;44.786;37.680;2024-01-11T03:18:40;33.90;;;14.50;;
78987;SDS011;74752;44.786;37.680;2024-01-11T03:19:43;36.20;;;14.73;;
78987;SDS011;74752;44.786;37.680;2024-01-11T03:20:48;35.50;;;16.23;;
78987;SDS011;74752;44.786;37.680;2024-01-11T03:21:58;37.72;;;16.42;;
78987;SDS011;74752;44.786;37.680;2024-01-11T03:23:06;44.47;;;16.73;;
78987;SDS011;74752;44.786;37.680;2024-01-11T03:24:08;34.67;;;16.08;;
78987;SDS011;74752;44.786;37.680;2024-01-11T03:25:14;42.92;;;16.15;;
78987;SDS011;74752;44.786;37.680;2024-01-11T03:26:17;39.63;;;16.48;;
78987;SDS011;74752;44.786;37.680;2024-01-11T03:27:20;42.33;;;16.48;;
78987;SDS011;74752;44.786;37.680;2024-01-11T03:28:24;41.00;;;16.90;;
78987;SDS011;74752;44.786;37.680;2024-01-11T03:29:27;36.17;;;16.30;;
78987;SDS011;74752;44.786;37.680;2024-01-11T03:30:36;38.63;;;16.67;;
78987;SDS011;74752;44.786;37.680;2024-01-11T03:31:39;34.50;;;15.27;;
78987;SDS011;74752;44.786;37.680;2024-01-11T03:32:44;39.28;;;19.08;;
78987;SDS011;74752;44.786;37.680;2024-01-11T03:33:46;44.47;;;18.15;;
78987;SDS011;74752;44.786;37.680;2024-01-11T03:34:48;54.60;;;21.13;;
78987;SDS011;74752;44.786;37.680;2024-01-11T03:35:49;45.53;;;20.05;;
78987;SDS011;74752;44.786;37.680;2024-01-11T03:37:00;47.08;;;22.00;;
78987;SDS011;74752;44.786;37.680;2024-01-11T03:38:04;50.33;;;21.42;;
78987;SDS011;74752;44.786;37.680;2024-01-11T03:39:07;41.10;;;18.40;;
78987;SDS011;74752;44.786;37.680;2024-01-11T03:40:09;40.22;;;18.65;;
78987;SDS011;74752;44.786;37.680;2024-01-11T03:41:11;46.65;;;19.88;;
78987;SDS011;74752;44.786;37.680;2024-01-11T03:42:24;41.78;;;16.83;;
78987;SDS011;74752;44.786;37.680;2024-01-11T03:43:26;39.13;;;17.92;;
78987;SDS011;74752;44.786;37.680;2024-01-11T03:44:28;43.30;;;18.25;;
78987;SDS011;74752;44.786;37.680;2024-01-11T03:45:33;45.03;;;18.52;;
78987;SDS011;74752;44.786;37.680;2024-01-11T03:46:35;38.75;;;17.13;;
78987;SDS011;74752;44.786;37.680;2024-01-11T03:47:37;43.42;;;16.60;;
78987;SDS011;74752;44.786;37.680;2024-01-11T03:48:38;37.42;;;16.83;;
78987;SDS011;74752;44.786;37.680;2024-01-11T03:49:39;42.85;;;15.35;;
78987;SDS011;74752;44.786;37.680;2024-01-11T03:50:44;35.33;;;15.27;;
78987;SDS011;74752;44.786;37.680;2024-01-11T03:51:46;40.88;;;16.20;;
78987;SDS011;74752;44.786;37.680;2024-01-11T03:52:48;31.75;;;15.30;;
78987;SDS011;74752;44.786;37.680;2024-01-11T03:53:49;35.90;;;16.08;;
78987;SDS011;74752;44.786;37.680;2024-01-11T03:54:54;37.55;;;15.82;;
78987;SDS011;74752;44.786;37.680;2024-01-11T03:55:56;32.80;;;15.80;;
78987;SDS011;74752;44.786;37.680;2024-01-11T03:56:58;51.40;;;17.55;;
78987;SDS011;74752;44.786;37.680;2024-01-11T03:57:59;44.92;;;17.83;;
78987;SDS011;74752;44.786;37.680;2024-01-11T03:59:05;40.58;;;16.67;;
78987;SDS011;74752;44.786;37.680;2024-01-11T04:00:07;37.35;;;16.02;;
78987;SDS011;74752;44.786;37.680;2024-01-11T04:01:10;44.92;;;16.77;;
78987;SDS011;74752;44.786;37.680;2024-01-11T04:02:17;39.80;;;15.50;;
78987;SDS011;74752;44.786;37.680;2024-01-11T04:03:19;35.40;;;15.10;;
78987;SDS011;74752;44.786;37.680;2024-01-11T04:04:20;42.08;;;17.45;;
78987;SDS011;74752;44.786;37.680;2024-01-11T04:05:23;45.78;;;16.10;;
78987;SDS011;74752;44.786;37.680;2024-01-11T04:06:29;38.20;;;15.75;;
78987;SDS011;74752;44.786;37.680;2024-01-11T04:07:35;36.88;;;15.85;;
78987;SDS011;74752;44.786;37.680;2024-01-11T04:08:37;38.05;;;16.05;;
78987;SDS011;74752;44.786;37.680;2024-01-11T04:09:39;38.35;;;16.05;;
78987;SDS011;74752;44.786;37.680;2024-01-11T04:10:49;47.30;;;16.52;;
78987;SDS011;74752;44.786;37.680;2024-01-11T04:11:52;43.00;;;16.25;;
78987;SDS011;74752;44.786;37.680;2024-01-11T04:12:57;42.97;;;17.15;;
78987;SDS011;74752;44.786;37.680;2024-01-11T04:13:59;37.72;;;17.02;;
78987;SDS011;74752;44.786;37.680;2024-01-11T04:15:04;33.60;;;15.85;;
78987;SDS011;74752;44.786;37.680;2024-01-11T04:16:28;46.63;;;17.33;;
78987;SDS011;74752;44.786;37.680;2024-01-11T04:17:30;48.97;;;16.55;;
78987;SDS011;74752;44.786;37.680;2024-01-11T04:18:40;35.58;;;14.98;;
78987;SDS011;74752;44.786;37.680;2024-01-11T04:19:51;37.08;;;15.80;;
78987;SDS011;74752;44.786;37.680;2024-01-11T04:21:02;41.53;;;16.33;;
78987;SDS011;74752;44.786;37.680;2024-01-11T04:22:05;48.83;;;17.75;;
78987;SDS011;74752;44.786;37.680;2024-01-11T04:23:07;43.03;;;16.77;;
78987;SDS011;74752;44.786;37.680;2024-01-11T04:24:08;39.33;;;17.17;;
78987;SDS011;74752;44.786;37.680;2024-01-11T04:25:10;39.63;;;16.42;;
78987;SDS011;74752;44.786;37.680;2024-01-11T04:26:18;39.22;;;16.52;;
78987;SDS011;74752;44.786;37.680;2024-01-11T04:27:19;47.10;;;17.90;;
78987;SDS011;74752;44.786;37.680;2024-01-11T04:28:22;43.72;;;17.50;;
78987;SDS011;74752;44.786;37.680;2024-01-11T04:29:27;40.45;;;16.30;;
78987;SDS011;74752;44.786;37.680;2024-01-11T04:30:29;40.80;;;18.40;;
78987;SDS011;74752;44.786;37.680;2024-01-11T04:31:36;43.38;;;18.52;;
78987;SDS011;74752;44.786;37.680;2024-01-11T04:32:39;39.22;;;16.55;;
78987;SDS011;74752;44.786;37.680;2024-01-11T04:33:47;43.03;;;17.02;;
78987;SDS011;74752;44.786;37.680;2024-01-11T04:34:49;41.00;;;16.77;;
78987;SDS011;74752;44.786;37.680;2024-01-11T04:35:55;40.53;;;16.23;;
78987;SDS011;74752;44.786;37.680;2024-01-11T04:37:00;77.50;;;28.05;;
78987;SDS011;74752;44.786;37.680;2024-01-11T04:38:05;155.50;;;56.75;;
78987;SDS011;74752;44.786;37.680;2024-01-11T04:39:07;52.03;;;21.30;;
78987;SDS011;74752;44.786;37.680;2024-01-11T04:40:13;45.90;;;18.88;;
78987;SDS011;74752;44.786;37.680;2024-01-11T04:41:15;65.97;;;26.17;;
78987;SDS011;74752;44.786;37.680;2024-01-11T04:42:17;64.07;;;26.65;;
78987;SDS011;74752;44.786;37.680;2024-01-11T04:43:25;59.60;;;24.60;;
78987;SDS011;74752;44.786;37.680;2024-01-11T04:44:28;46.47;;;21.15;;
78987;SDS011;74752;44.786;37.680;2024-01-11T04:45:29;51.40;;;22.50;;
78987;SDS011;74752;44.786;37.680;2024-01-11T04:46:37;40.50;;;17.48;;
78987;SDS011;74752;44.786;37.680;2024-01-11T04:47:39;41.80;;;17.17;;
78987;SDS011;74752;44.786;37.680;2024-01-11T04:48:42;42.85;;;18.50;;
78987;SDS011;74752;44.786;37.680;2024-01-11T04:49:45;39.92;;;17.50;;
78987;SDS011;74752;44.786;37.680;2024-01-11T04:50:49;135.00;;;54.65;;
78987;SDS011;74752;44.786;37.680;2024-01-11T04:51:54;63.20;;;28.15;;
78987;SDS011;74752;44.786;37.680;2024-01-11T04:52:56;83.15;;;36.60;;
78987;SDS011;74752;44.786;37.680;2024-01-11T04:53:58;77.35;;;32.70;;
78987;SDS011;74752;44.786;37.680;2024-01-11T04:54:59;48.10;;;21.05;;
78987;SDS011;74752;44.786;37.680;2024-01-11T04:56:13;55.50;;;22.92;;
78987;SDS011;74752;44.786;37.680;2024-01-11T04:57:18;54.85;;;23.08;;
78987;SDS011;74752;44.786;37.680;2024-01-11T04:58:23;49.90;;;21.27;;
78987;SDS011;74752;44.786;37.680;2024-01-11T04:59:28;50.00;;;21.30;;
78987;SDS011;74752;44.786;37.680;2024-01-11T05:00:42;43.80;;;19.40;;
78987;SDS011;74752;44.786;37.680;2024-01-11T05:01:45;44.67;;;19.00;;
78987;SDS011;74752;44.786;37.680;2024-01-11T05:02:47;44.13;;;17.35;;
78987;SDS011;74752;44.786;37.680;2024-01-11T05:03:49;42.88;;;17.45;;
78987;SDS011;74752;44.786;37.680;2024-01-11T05:04:54;44.95;;;17.90;;
78987;SDS011;74752;44.786;37.680;2024-01-11T05:06:01;41.05;;;17.27;;
78987;SDS011;74752;44.786;37.680;2024-01-11T05:07:05;43.83;;;18.70;;
78987;SDS011;74752;44.786;37.680;2024-01-11T05:08:07;47.03;;;22.08;;
78987;SDS011;74752;44.786;37.680;2024-01-11T05:09:09;53.38;;;25.25;;
78987;SDS011;74752;44.786;37.680;2024-01-11T05:10:11;53.17;;;23.48;;
78987;SDS011;74752;44.786;37.680;2024-01-11T05:11:19;73.13;;;32.92;;
78987;SDS011;74752;44.786;37.680;2024-01-11T05:12:22;71.43;;;29.13;;
78987;SDS011;74752;44.786;37.680;2024-01-11T05:13:25;75.95;;;33.70;;
78987;SDS011;74752;44.786;37.680;2024-01-11T05:14:27;118.32;;;50.70;;
78987;SDS011;74752;44.786;37.680;2024-01-11T05:15:29;69.93;;;29.15;;
78987;SDS011;74752;44.786;37.680;2024-01-11T05:16:33;140.48;;;57.00;;
78987;SDS011;74752;44.786;37.680;2024-01-11T05:17:37;126.57;;;52.08;;
78987;SDS011;74752;44.786;37.680;2024-01-11T05:18:39;76.65;;;31.23;;
78987;SDS011;74752;44.786;37.680;2024-01-11T05:19:44;42.97;;;19.17;;
78987;SDS011;74752;44.786;37.680;2024-01-11T05:20:50;46.25;;;19.77;;
78987;SDS011;74752;44.786;37.680;2024-01-11T05:21:55;41.25;;;18.35;;
78987;SDS011;74752;44.786;37.680;2024-01-11T05:22:58;44.85;;;19.70;;
78987;SDS011;74752;44.786;37.680;2024-01-11T05:24:03;44.05;;;19.50;;
78987;SDS011;74752;44.786;37.680;2024-01-11T05:25:05;44.17;;;19.05;;
78987;SDS011;74752;44.786;37.680;2024-01-11T05:26:08;40.28;;;18.35;;
78987;SDS011;74752;44.786;37.680;2024-01-11T05:27:14;61.55;;;25.25;;
78987;SDS011;74752;44.786;37.680;2024-01-11T05:28:16;45.97;;;19.50;;
78987;SDS011;74752;44.786;37.680;2024-01-11T05:29:21;46.65;;;20.08;;
78987;SDS011;74752;44.786;37.680;2024-01-11T05:30:25;43.30;;;18.80;;
78987;SDS011;74752;44.786;37.680;2024-01-11T05:31:37;40.53;;;18.02;;
78987;SDS011;74752;44.786;37.680;2024-01-11T05:32:38;41.15;;;18.67;;
78987;SDS011;74752;44.786;37.680;2024-01-11T05:33:49;41.72;;;19.10;;
78987;SDS011;74752;44.786;37.680;2024-01-11T05:34:59;34.25;;;15.95;;
78987;SDS011;74752;44.786;37.680;2024-01-11T05:36:02;43.88;;;17.20;;
78987;SDS011;74752;44.786;37.680;2024-01-11T05:37:05;38.35;;;18.15;;
78987;SDS011;74752;44.786;37.680;2024-01-11T05:38:10;38.75;;;17.63;;
78987;SDS011;74752;44.786;37.680;2024-01-11T05:39:13;46.97;;;17.85;;
78987;SDS011;74752;44.786;37.680;2024-01-11T05:40:15;44.63;;;18.80;;
78987;SDS011;74752;44.786;37.680;2024-01-11T05:41:17;46.00;;;18.77;;
78987;SDS011;74752;44.786;37.680;2024-01-11T05:42:19;47.13;;;18.98;;
78987;SDS011;74752;44.786;37.680;2024-01-11T05:43:21;46.22;;;19.23;;
78987;SDS011;74752;44.786;37.680;2024-01-11T05:44:33;44.33;;;19.13;;
78987;SDS011;74752;44.786;37.680;2024-01-11T05:45:35;41.70;;;19.88;;
78987;SDS011;74752;44.786;37.680;2024-01-11T05:46:38;42.33;;;18.85;;
78987;SDS011;74752;44.786;37.680;2024-01-11T05:47:39;46.80;;;20.30;;
78987;SDS011;74752;44.786;37.680;2024-01-11T05:48:50;49.67;;;24.67;;
78987;SDS011;74752;44.786;37.680;2024-01-11T05:49:52;83.20;;;43.83;;
78987;SDS011;74752;44.786;37.680;2024-01-11T05:50:57;117.90;;;65.07;;
78987;SDS011;74752;44.786;37.680;2024-01-11T05:52:03;91.70;;;48.83;;
78987;SDS011;74752;44.786;37.680;2024-01-11T05:53:05;59.05;;;28.38;;
78987;SDS011;74752;44.786;37.680;2024-01-11T05:54:10;57.45;;;30.08;;
78987;SDS011;74752;44.786;37.680;2024-01-11T05:55:12;56.30;;;28.25;;
78987;SDS011;74752;44.786;37.680;2024-01-11T05:56:18;52.83;;;24.88;;
78987;SDS011;74752;44.786;37.680;2024-01-11T05:57:22;55.13;;;23.58;;
78987;SDS011;74752;44.786;37.680;2024-01-11T05:58:24;45.38;;;21.13;;
78987;SDS011;74752;44.786;37.680;2024-01-11T05:59:26;47.35;;;19.70;;
78987;SDS011;74752;44.786;37.680;2024-01-11T06:00:28;43.55;;;20.20;;
78987;SDS011;74752;44.786;37.680;2024-01-11T06:01:29;48.15;;;21.63;;
78987;SDS011;74752;44.786;37.680;2024-01-11T06:02:33;50.08;;;22.13;;
78987;SDS011;74752;44.786;37.680;2024-01-11T06:03:35;52.58;;;20.52;;
78987;SDS011;74752;44.786;37.680;2024-01-11T06:04:38;49.10;;;20.60;;
78987;SDS011;74752;44.786;37.680;2024-01-11T06:05:39;47.65;;;22.25;;
78987;SDS011;74752;44.786;37.680;2024-01-11T06:06:50;47.25;;;21.48;;
78987;SDS011;74752;44.786;37.680;2024-01-11T06:07:51;43.50;;;18.92;;
78987;SDS011;74752;44.786;37.680;2024-01-11T06:08:53;46.53;;;19.75;;
78987;SDS011;74752;44.786;37.680;2024-01-11T06:10:00;44.13;;;19.15;;
78987;SDS011;74752;44.786;37.680;2024-01-11T06:11:15;46.60;;;19.27;;
78987;SDS011;74752;44.786;37.680;2024-01-11T06:12:22;48.90;;;18.90;;
78987;SDS011;74752;44.786;37.680;2024-01-11T06:13:24;45.72;;;19.95;;